sensor_id;sensor_type;location;lat;lon;timestamp;temperature;humidity
15203;DHT22;7702;51.046;5.184;2023-04-24T00:01:29;9.70;99.90
15203;DHT22;7702;51.046;5.184;2023-04-24T00:03:57;9.70;99.90
15203;DHT22;7702;51.046;5.184;2023-04-24T00:06:25;9.70;99.90
15203;DHT22;7702;51.046;5.184;2023-04-24T00:08:59;9.60;99.90
15203;DHT22;7702;51.046;5.184;2023-04-24T00:11:26;9.60;99.90
15203;DHT22;7702;51.046;5.184;2023-04-24T00:13:52;9.60;99.90
15203;DHT22;7702;51.046;5.184;2023-04-24T00:16:17;9.60;99.90
15203;DHT22;7702;51.046;5.184;2023-04-24T00:18:43;9.60;99.90
15203;DHT22;7702;51.046;5.184;2023-04-24T00:21:10;9.70;99.90
15203;DHT22;7702;51.046;5.184;2023-04-24T00:23:36;9.70;99.90
15203;DHT22;7702;51.046;5.184;2023-04-24T00:26:02;9.70;99.90
15203;DHT22;7702;51.046;5.184;2023-04-24T00:28:27;9.70;99.90
15203;DHT22;7702;51.046;5.184;2023-04-24T00:30:53;9.70;99.90
15203;DHT22;7702;51.046;5.184;2023-04-24T00:33:20;9.70;99.90
15203;DHT22;7702;51.046;5.184;2023-04-24T00:35:46;9.70;99.90
15203;DHT22;7702;51.046;5.184;2023-04-24T00:38:11;9.70;99.90
15203;DHT22;7702;51.046;5.184;2023-04-24T00:40:37;9.70;99.90
15203;DHT22;7702;51.046;5.184;2023-04-24T00:43:03;9.70;99.90
15203;DHT22;7702;51.046;5.184;2023-04-24T00:45:29;9.80;99.90
15203;DHT22;7702;51.046;5.184;2023-04-24T00:47:57;9.70;99.90
15203;DHT22;7702;51.046;5.184;2023-04-24T00:50:24;9.70;99.90
15203;DHT22;7702;51.046;5.184;2023-04-24T00:52:50;9.70;99.90
15203;DHT22;7702;51.046;5.184;2023-04-24T00:55:16;9.70;99.90
15203;DHT22;7702;51.046;5.184;2023-04-24T00:57:43;9.70;99.90
15203;DHT22;7702;51.046;5.184;2023-04-24T01:00:09;9.70;99.90
15203;DHT22;7702;51.046;5.184;2023-04-24T01:02:39;9.70;99.90
15203;DHT22;7702;51.046;5.184;2023-04-24T01:05:09;9.70;99.90
15203;DHT22;7702;51.046;5.184;2023-04-24T01:07:35;9.70;99.90
15203;DHT22;7702;51.046;5.184;2023-04-24T01:10:02;9.60;99.90
15203;DHT22;7702;51.046;5.184;2023-04-24T01:12:28;9.70;99.90
15203;DHT22;7702;51.046;5.184;2023-04-24T01:14:54;9.60;99.90
15203;DHT22;7702;51.046;5.184;2023-04-24T01:17:22;9.70;99.90
15203;DHT22;7702;51.046;5.184;2023-04-24T01:19:48;9.70;99.90
15203;DHT22;7702;51.046;5.184;2023-04-24T01:22:14;9.70;99.90
15203;DHT22;7702;51.046;5.184;2023-04-24T01:24:41;9.70;99.90
15203;DHT22;7702;51.046;5.184;2023-04-24T01:27:07;9.70;99.90
15203;DHT22;7702;51.046;5.184;2023-04-24T01:29:34;9.70;99.90
15203;DHT22;7702;51.046;5.184;2023-04-24T01:31:59;9.60;99.90
15203;DHT22;7702;51.046;5.184;2023-04-24T01:34:25;9.60;99.90
15203;DHT22;7702;51.046;5.184;2023-04-24T01:36:51;9.60;99.90
15203;DHT22;7702;51.046;5.184;2023-04-24T01:39:17;9.60;99.90
15203;DHT22;7702;51.046;5.184;2023-04-24T01:41:43;9.60;99.90
15203;DHT22;7702;51.046;5.184;2023-04-24T01:44:08;9.60;99.90
15203;DHT22;7702;51.046;5.184;2023-04-24T01:46:34;9.50;99.90
15203;DHT22;7702;51.046;5.184;2023-04-24T01:49:01;9.50;99.90
15203;DHT22;7702;51.046;5.184;2023-04-24T01:51:28;9.60;99.90
15203;DHT22;7702;51.046;5.184;2023-04-24T01:53:53;9.60;99.90
15203;DHT22;7702;51.046;5.184;2023-04-24T01:56:22;9.60;99.90
15203;DHT22;7702;51.046;5.184;2023-04-24T01:58:50;9.60;99.90
15203;DHT22;7702;51.046;5.184;2023-04-24T02:01:20;9.60;99.90
15203;DHT22;7702;51.046;5.184;2023-04-24T02:03:46;9.50;99.90
15203;DHT22;7702;51.046;5.184;2023-04-24T02:06:12;9.50;99.90
15203;DHT22;7702;51.046;5.184;2023-04-24T02:08:37;9.50;99.90
15203;DHT22;7702;51.046;5.184;2023-04-24T02:11:03;9.50;99.90
15203;DHT22;7702;51.046;5.184;2023-04-24T02:13:29;9.60;99.90
15203;DHT22;7702;51.046;5.184;2023-04-24T02:15:54;9.60;99.90
15203;DHT22;7702;51.046;5.184;2023-04-24T02:18:20;9.50;99.90
15203;DHT22;7702;51.046;5.184;2023-04-24T02:20:48;9.50;99.90
15203;DHT22;7702;51.046;5.184;2023-04-24T02:23:13;9.40;99.90
15203;DHT22;7702;51.046;5.184;2023-04-24T02:25:40;9.40;99.90
15203;DHT22;7702;51.046;5.184;2023-04-24T02:28:05;9.40;99.90
15203;DHT22;7702;51.046;5.184;2023-04-24T02:30:31;9.40;99.90
15203;DHT22;7702;51.046;5.184;2023-04-24T02:32:57;9.40;99.90
15203;DHT22;7702;51.046;5.184;2023-04-24T02:35:23;9.30;99.90
15203;DHT22;7702;51.046;5.184;2023-04-24T02:37:49;9.40;99.90
15203;DHT22;7702;51.046;5.184;2023-04-24T02:40:15;9.30;99.90
15203;DHT22;7702;51.046;5.184;2023-04-24T02:42:41;9.30;99.90
15203;DHT22;7702;51.046;5.184;2023-04-24T02:45:07;9.20;99.90
15203;DHT22;7702;51.046;5.184;2023-04-24T02:47:32;9.10;99.90
15203;DHT22;7702;51.046;5.184;2023-04-24T02:49:58;9.10;99.90
15203;DHT22;7702;51.046;5.184;2023-04-24T02:52:24;9.10;99.90
15203;DHT22;7702;51.046;5.184;2023-04-24T02:54:50;9.00;99.90
15203;DHT22;7702;51.046;5.184;2023-04-24T02:57:15;8.90;99.90
15203;DHT22;7702;51.046;5.184;2023-04-24T02:59:41;8.90;99.90
15203;DHT22;7702;51.046;5.184;2023-04-24T03:02:06;8.80;99.90
15203;DHT22;7702;51.046;5.184;2023-04-24T03:04:32;8.70;99.90
15203;DHT22;7702;51.046;5.184;2023-04-24T03:06:58;8.70;99.90
15203;DHT22;7702;51.046;5.184;2023-04-24T03:09:24;8.70;99.90
15203;DHT22;7702;51.046;5.184;2023-04-24T03:11:50;8.70;99.90
15203;DHT22;7702;51.046;5.184;2023-04-24T03:14:16;8.60;99.90
15203;DHT22;7702;51.046;5.184;2023-04-24T03:16:42;8.60;99.90
15203;DHT22;7702;51.046;5.184;2023-04-24T03:19:08;8.60;99.90
15203;DHT22;7702;51.046;5.184;2023-04-24T03:21:33;8.60;99.90
15203;DHT22;7702;51.046;5.184;2023-04-24T03:24:01;8.70;99.90
15203;DHT22;7702;51.046;5.184;2023-04-24T03:26:26;8.60;99.90
15203;DHT22;7702;51.046;5.184;2023-04-24T03:28:52;8.60;99.90
15203;DHT22;7702;51.046;5.184;2023-04-24T03:31:18;8.60;99.90
15203;DHT22;7702;51.046;5.184;2023-04-24T03:33:44;8.60;99.90
15203;DHT22;7702;51.046;5.184;2023-04-24T03:36:10;8.50;99.90
15203;DHT22;7702;51.046;5.184;2023-04-24T03:38:35;8.50;99.90
15203;DHT22;7702;51.046;5.184;2023-04-24T03:41:01;8.50;99.90
15203;DHT22;7702;51.046;5.184;2023-04-24T03:43:27;8.50;99.90
15203;DHT22;7702;51.046;5.184;2023-04-24T03:45:53;8.60;99.90
15203;DHT22;7702;51.046;5.184;2023-04-24T03:48:18;8.60;99.90
15203;DHT22;7702;51.046;5.184;2023-04-24T03:50:44;8.60;99.90
15203;DHT22;7702;51.046;5.184;2023-04-24T03:53:11;8.60;99.90
15203;DHT22;7702;51.046;5.184;2023-04-24T03:55:37;8.60;99.90
15203;DHT22;7702;51.046;5.184;2023-04-24T03:58:02;8.60;99.90
15203;DHT22;7702;51.046;5.184;2023-04-24T04:00:28;8.60;99.90
15203;DHT22;7702;51.046;5.184;2023-04-24T04:02:54;8.60;99.90
15203;DHT22;7702;51.046;5.184;2023-04-24T04:05:20;8.50;99.90
15203;DHT22;7702;51.046;5.184;2023-04-24T04:07:45;8.50;99.90
15203;DHT22;7702;51.046;5.184;2023-04-24T04:10:11;8.60;99.90
15203;DHT22;7702;51.046;5.184;2023-04-24T04:12:37;8.50;99.90
15203;DHT22;7702;51.046;5.184;2023-04-24T04:15:03;8.50;99.90
15203;DHT22;7702;51.046;5.184;2023-04-24T04:17:30;8.50;99.90
15203;DHT22;7702;51.046;5.184;2023-04-24T04:19:55;8.50;99.90
15203;DHT22;7702;51.046;5.184;2023-04-24T04:22:21;8.50;99.90
15203;DHT22;7702;51.046;5.184;2023-04-24T04:24:47;8.50;99.90
15203;DHT22;7702;51.046;5.184;2023-04-24T04:27:13;8.40;99.90
15203;DHT22;7702;51.046;5.184;2023-04-24T04:29:38;8.40;99.90
15203;DHT22;7702;51.046;5.184;2023-04-24T04:32:05;8.40;99.90
15203;DHT22;7702;51.046;5.184;2023-04-24T04:34:31;8.40;99.90
15203;DHT22;7702;51.046;5.184;2023-04-24T04:36:58;8.40;99.90
15203;DHT22;7702;51.046;5.184;2023-04-24T04:39:27;8.40;99.90
15203;DHT22;7702;51.046;5.184;2023-04-24T04:41:53;8.40;99.90
15203;DHT22;7702;51.046;5.184;2023-04-24T04:44:19;8.40;99.90
15203;DHT22;7702;51.046;5.184;2023-04-24T04:46:45;8.50;99.90
15203;DHT22;7702;51.046;5.184;2023-04-24T04:49:11;8.50;99.90
15203;DHT22;7702;51.046;5.184;2023-04-24T04:51:37;8.50;99.90
15203;DHT22;7702;51.046;5.184;2023-04-24T04:54:02;8.50;99.90
15203;DHT22;7702;51.046;5.184;2023-04-24T04:56:28;8.40;99.90
15203;DHT22;7702;51.046;5.184;2023-04-24T04:58:54;8.50;99.90
15203;DHT22;7702;51.046;5.184;2023-04-24T05:01:19;8.50;99.90
15203;DHT22;7702;51.046;5.184;2023-04-24T05:03:45;8.50;99.90
15203;DHT22;7702;51.046;5.184;2023-04-24T05:06:11;8.50;99.90
15203;DHT22;7702;51.046;5.184;2023-04-24T05:08:36;8.60;99.90
15203;DHT22;7702;51.046;5.184;2023-04-24T05:11:02;8.50;99.90
15203;DHT22;7702;51.046;5.184;2023-04-24T05:13:28;8.50;99.90
15203;DHT22;7702;51.046;5.184;2023-04-24T05:15:54;8.50;99.90
15203;DHT22;7702;51.046;5.184;2023-04-24T05:18:20;8.50;99.90
15203;DHT22;7702;51.046;5.184;2023-04-24T05:20:46;8.50;99.90
15203;DHT22;7702;51.046;5.184;2023-04-24T05:23:11;8.50;99.90
15203;DHT22;7702;51.046;5.184;2023-04-24T05:25:37;8.50;99.90
15203;DHT22;7702;51.046;5.184;2023-04-24T05:28:04;8.50;99.90
15203;DHT22;7702;51.046;5.184;2023-04-24T05:30:30;8.50;99.90
15203;DHT22;7702;51.046;5.184;2023-04-24T05:32:56;8.40;99.90
15203;DHT22;7702;51.046;5.184;2023-04-24T05:35:21;8.40;99.90
15203;DHT22;7702;51.046;5.184;2023-04-24T05:37:47;8.40;99.90
15203;DHT22;7702;51.046;5.184;2023-04-24T05:40:13;8.40;99.90
15203;DHT22;7702;51.046;5.184;2023-04-24T05:42:38;8.40;99.90
15203;DHT22;7702;51.046;5.184;2023-04-24T05:45:05;8.30;99.90
15203;DHT22;7702;51.046;5.184;2023-04-24T05:47:31;8.40;99.90
15203;DHT22;7702;51.046;5.184;2023-04-24T05:49:56;8.40;99.90
15203;DHT22;7702;51.046;5.184;2023-04-24T05:52:22;8.30;99.90
15203;DHT22;7702;51.046;5.184;2023-04-24T05:54:48;8.30;99.90
15203;DHT22;7702;51.046;5.184;2023-04-24T05:57:14;8.20;99.90
15203;DHT22;7702;51.046;5.184;2023-04-24T05:59:40;8.20;99.90
15203;DHT22;7702;51.046;5.184;2023-04-24T06:02:07;8.20;99.90
15203;DHT22;7702;51.046;5.184;2023-04-24T06:04:33;8.20;99.90
15203;DHT22;7702;51.046;5.184;2023-04-24T06:06:59;8.20;99.90
15203;DHT22;7702;51.046;5.184;2023-04-24T06:09:25;8.20;99.90
15203;DHT22;7702;51.046;5.184;2023-04-24T06:11:51;8.20;99.90
15203;DHT22;7702;51.046;5.184;2023-04-24T06:14:21;8.20;99.90
15203;DHT22;7702;51.046;5.184;2023-04-24T06:16:47;8.20;99.90
15203;DHT22;7702;51.046;5.184;2023-04-24T06:19:13;8.20;99.90
15203;DHT22;7702;51.046;5.184;2023-04-24T06:21:39;8.10;99.90
15203;DHT22;7702;51.046;5.184;2023-04-24T06:24:04;8.20;99.90
15203;DHT22;7702;51.046;5.184;2023-04-24T06:26:30;8.10;99.90
15203;DHT22;7702;51.046;5.184;2023-04-24T06:28:56;8.10;99.90
15203;DHT22;7702;51.046;5.184;2023-04-24T06:31:24;8.10;99.90
15203;DHT22;7702;51.046;5.184;2023-04-24T06:33:49;8.10;99.90
15203;DHT22;7702;51.046;5.184;2023-04-24T06:36:15;8.10;99.90
15203;DHT22;7702;51.046;5.184;2023-04-24T06:38:41;8.10;99.90
15203;DHT22;7702;51.046;5.184;2023-04-24T06:41:07;8.10;99.90
15203;DHT22;7702;51.046;5.184;2023-04-24T06:43:33;8.10;99.90
15203;DHT22;7702;51.046;5.184;2023-04-24T06:45:59;8.10;99.90
15203;DHT22;7702;51.046;5.184;2023-04-24T06:48:26;8.20;99.90
15203;DHT22;7702;51.046;5.184;2023-04-24T06:50:52;8.10;99.90
15203;DHT22;7702;51.046;5.184;2023-04-24T06:53:17;8.10;99.90
15203;DHT22;7702;51.046;5.184;2023-04-24T06:55:43;8.10;99.90
15203;DHT22;7702;51.046;5.184;2023-04-24T06:58:11;8.10;99.90
15203;DHT22;7702;51.046;5.184;2023-04-24T07:00:45;8.20;99.90
15203;DHT22;7702;51.046;5.184;2023-04-24T07:03:11;8.10;99.90
15203;DHT22;7702;51.046;5.184;2023-04-24T07:05:36;8.20;99.90
15203;DHT22;7702;51.046;5.184;2023-04-24T07:08:03;8.20;99.90
15203;DHT22;7702;51.046;5.184;2023-04-24T07:10:29;8.10;99.90
15203;DHT22;7702;51.046;5.184;2023-04-24T07:12:55;8.20;99.90
15203;DHT22;7702;51.046;5.184;2023-04-24T07:15:24;8.10;99.90
15203;DHT22;7702;51.046;5.184;2023-04-24T07:17:50;8.20;99.90
15203;DHT22;7702;51.046;5.184;2023-04-24T07:20:15;8.20;99.90
15203;DHT22;7702;51.046;5.184;2023-04-24T07:22:41;8.20;99.90
15203;DHT22;7702;51.046;5.184;2023-04-24T07:25:07;8.20;99.90
15203;DHT22;7702;51.046;5.184;2023-04-24T07:27:34;8.30;99.90
15203;DHT22;7702;51.046;5.184;2023-04-24T07:30:00;8.20;99.90
15203;DHT22;7702;51.046;5.184;2023-04-24T07:32:26;8.30;99.90
15203;DHT22;7702;51.046;5.184;2023-04-24T07:34:51;8.30;99.90
15203;DHT22;7702;51.046;5.184;2023-04-24T07:37:17;8.20;99.90
15203;DHT22;7702;51.046;5.184;2023-04-24T07:39:43;8.20;99.90
15203;DHT22;7702;51.046;5.184;2023-04-24T07:42:09;8.20;99.90
15203;DHT22;7702;51.046;5.184;2023-04-24T07:44:34;8.10;99.90
15203;DHT22;7702;51.046;5.184;2023-04-24T07:47:01;8.10;99.90
15203;DHT22;7702;51.046;5.184;2023-04-24T07:49:26;8.10;99.90
15203;DHT22;7702;51.046;5.184;2023-04-24T07:51:53;8.20;99.90
15203;DHT22;7702;51.046;5.184;2023-04-24T07:54:18;8.20;99.90
15203;DHT22;7702;51.046;5.184;2023-04-24T07:56:44;8.30;99.90
15203;DHT22;7702;51.046;5.184;2023-04-24T07:59:11;8.40;99.90
15203;DHT22;7702;51.046;5.184;2023-04-24T08:01:36;8.50;99.90
15203;DHT22;7702;51.046;5.184;2023-04-24T08:04:02;8.50;99.90
15203;DHT22;7702;51.046;5.184;2023-04-24T08:06:28;8.50;99.90
15203;DHT22;7702;51.046;5.184;2023-04-24T08:08:56;8.50;99.90
15203;DHT22;7702;51.046;5.184;2023-04-24T08:11:22;8.50;99.90
15203;DHT22;7702;51.046;5.184;2023-04-24T08:13:47;8.60;99.90
15203;DHT22;7702;51.046;5.184;2023-04-24T08:16:13;8.60;99.90
15203;DHT22;7702;51.046;5.184;2023-04-24T08:18:39;8.50;99.90
15203;DHT22;7702;51.046;5.184;2023-04-24T08:21:04;8.50;99.90
15203;DHT22;7702;51.046;5.184;2023-04-24T08:23:30;8.70;99.90
15203;DHT22;7702;51.046;5.184;2023-04-24T08:25:56;8.80;99.90
15203;DHT22;7702;51.046;5.184;2023-04-24T08:28:22;8.90;99.90
15203;DHT22;7702;51.046;5.184;2023-04-24T08:30:48;9.00;99.90
15203;DHT22;7702;51.046;5.184;2023-04-24T08:33:14;9.00;99.90
15203;DHT22;7702;51.046;5.184;2023-04-24T08:35:40;9.00;99.90
15203;DHT22;7702;51.046;5.184;2023-04-24T08:38:06;9.30;99.90
15203;DHT22;7702;51.046;5.184;2023-04-24T08:40:34;9.40;99.90
15203;DHT22;7702;51.046;5.184;2023-04-24T08:43:00;9.50;99.90
15203;DHT22;7702;51.046;5.184;2023-04-24T08:45:26;9.60;99.90
15203;DHT22;7702;51.046;5.184;2023-04-24T08:47:53;10.00;99.90
15203;DHT22;7702;51.046;5.184;2023-04-24T08:50:22;10.00;99.90
15203;DHT22;7702;51.046;5.184;2023-04-24T08:52:50;9.80;99.90
15203;DHT22;7702;51.046;5.184;2023-04-24T08:55:16;9.70;99.90
15203;DHT22;7702;51.046;5.184;2023-04-24T08:57:48;9.70;99.90
15203;DHT22;7702;51.046;5.184;2023-04-24T09:00:15;9.80;99.90
15203;DHT22;7702;51.046;5.184;2023-04-24T09:02:46;9.90;99.90
15203;DHT22;7702;51.046;5.184;2023-04-24T09:05:14;10.00;99.90
15203;DHT22;7702;51.046;5.184;2023-04-24T09:07:44;10.00;99.90
15203;DHT22;7702;51.046;5.184;2023-04-24T09:10:11;9.90;99.90
15203;DHT22;7702;51.046;5.184;2023-04-24T09:12:38;9.90;99.90
15203;DHT22;7702;51.046;5.184;2023-04-24T09:15:04;9.80;99.90
15203;DHT22;7702;51.046;5.184;2023-04-24T09:17:31;9.90;99.90
15203;DHT22;7702;51.046;5.184;2023-04-24T09:19:56;9.80;99.90
15203;DHT22;7702;51.046;5.184;2023-04-24T09:22:22;9.70;99.90
15203;DHT22;7702;51.046;5.184;2023-04-24T09:24:48;9.60;99.90
15203;DHT22;7702;51.046;5.184;2023-04-24T09:27:24;9.50;99.90
15203;DHT22;7702;51.046;5.184;2023-04-24T09:29:54;9.50;99.90
15203;DHT22;7702;51.046;5.184;2023-04-24T09:32:21;9.40;99.90
15203;DHT22;7702;51.046;5.184;2023-04-24T09:34:48;9.30;99.90
15203;DHT22;7702;51.046;5.184;2023-04-24T09:37:29;9.30;99.90
15203;DHT22;7702;51.046;5.184;2023-04-24T09:40:16;9.30;99.90
15203;DHT22;7702;51.046;5.184;2023-04-24T09:42:44;9.40;99.90
15203;DHT22;7702;51.046;5.184;2023-04-24T09:45:11;9.50;99.90
15203;DHT22;7702;51.046;5.184;2023-04-24T09:47:38;9.50;99.90
15203;DHT22;7702;51.046;5.184;2023-04-24T09:50:14;9.50;99.90
15203;DHT22;7702;51.046;5.184;2023-04-24T09:52:55;9.70;99.90
15203;DHT22;7702;51.046;5.184;2023-04-24T09:55:21;10.10;99.90
15203;DHT22;7702;51.046;5.184;2023-04-24T09:58:00;10.40;99.90
15203;DHT22;7702;51.046;5.184;2023-04-24T10:00:31;10.50;99.90
15203;DHT22;7702;51.046;5.184;2023-04-24T10:02:59;10.30;99.90
15203;DHT22;7702;51.046;5.184;2023-04-24T10:05:33;10.10;99.90
15203;DHT22;7702;51.046;5.184;2023-04-24T10:10:29;10.00;99.90
15203;DHT22;7702;51.046;5.184;2023-04-24T10:12:55;9.90;99.90
15203;DHT22;7702;51.046;5.184;2023-04-24T10:15:21;9.70;99.90
15203;DHT22;7702;51.046;5.184;2023-04-24T10:17:50;9.50;99.90
15203;DHT22;7702;51.046;5.184;2023-04-24T10:20:25;9.50;99.90
15203;DHT22;7702;51.046;5.184;2023-04-24T10:22:54;9.50;99.90
15203;DHT22;7702;51.046;5.184;2023-04-24T10:25:21;9.60;99.90
15203;DHT22;7702;51.046;5.184;2023-04-24T10:27:48;9.80;99.90
15203;DHT22;7702;51.046;5.184;2023-04-24T10:30:15;10.00;99.90
15203;DHT22;7702;51.046;5.184;2023-04-24T10:32:41;10.30;99.90
15203;DHT22;7702;51.046;5.184;2023-04-24T10:35:08;10.50;99.90
15203;DHT22;7702;51.046;5.184;2023-04-24T10:37:48;10.40;99.90
15203;DHT22;7702;51.046;5.184;2023-04-24T10:40:34;10.50;99.90
15203;DHT22;7702;51.046;5.184;2023-04-24T10:43:05;10.40;99.90
15203;DHT22;7702;51.046;5.184;2023-04-24T10:45:33;10.40;99.90
15203;DHT22;7702;51.046;5.184;2023-04-24T10:50:34;10.10;99.90
15203;DHT22;7702;51.046;5.184;2023-04-24T10:53:12;10.20;99.90
15203;DHT22;7702;51.046;5.184;2023-04-24T10:55:45;10.10;99.90
15203;DHT22;7702;51.046;5.184;2023-04-24T10:58:11;10.30;99.90
15203;DHT22;7702;51.046;5.184;2023-04-24T11:00:39;10.50;99.90
15203;DHT22;7702;51.046;5.184;2023-04-24T11:03:07;10.70;99.90
15203;DHT22;7702;51.046;5.184;2023-04-24T11:05:50;10.70;99.90
15203;DHT22;7702;51.046;5.184;2023-04-24T11:08:29;10.90;99.90
15203;DHT22;7702;51.046;5.184;2023-04-24T11:13:25;11.00;99.90
15203;DHT22;7702;51.046;5.184;2023-04-24T11:24:31;12.40;99.90
15203;DHT22;7702;51.046;5.184;2023-04-24T11:27:09;12.70;99.90
15203;DHT22;7702;51.046;5.184;2023-04-24T11:29:40;12.90;99.90
15203;DHT22;7702;51.046;5.184;2023-04-24T11:32:22;12.70;99.90
15203;DHT22;7702;51.046;5.184;2023-04-24T11:35:03;12.50;99.90
15203;DHT22;7702;51.046;5.184;2023-04-24T11:37:42;12.60;99.90
15203;DHT22;7702;51.046;5.184;2023-04-24T11:40:12;12.70;99.90
15203;DHT22;7702;51.046;5.184;2023-04-24T11:42:40;12.50;99.90
15203;DHT22;7702;51.046;5.184;2023-04-24T11:45:11;12.70;99.90
15203;DHT22;7702;51.046;5.184;2023-04-24T11:47:37;12.80;99.90
15203;DHT22;7702;51.046;5.184;2023-04-24T11:50:05;12.80;99.90
15203;DHT22;7702;51.046;5.184;2023-04-24T11:52:31;12.30;99.90
15203;DHT22;7702;51.046;5.184;2023-04-24T11:54:59;11.90;99.90
15203;DHT22;7702;51.046;5.184;2023-04-24T11:57:25;11.50;99.90
15203;DHT22;7702;51.046;5.184;2023-04-24T11:59:59;11.40;99.90
15203;DHT22;7702;51.046;5.184;2023-04-24T12:02:26;11.50;99.90
15203;DHT22;7702;51.046;5.184;2023-04-24T12:04:53;11.60;99.90
15203;DHT22;7702;51.046;5.184;2023-04-24T12:07:19;11.80;99.90
15203;DHT22;7702;51.046;5.184;2023-04-24T12:09:48;12.00;99.90
15203;DHT22;7702;51.046;5.184;2023-04-24T12:12:16;12.20;99.90
15203;DHT22;7702;51.046;5.184;2023-04-24T12:14:48;11.80;99.90
15203;DHT22;7702;51.046;5.184;2023-04-24T12:17:23;11.60;99.90
15203;DHT22;7702;51.046;5.184;2023-04-24T12:19:49;11.50;99.90
15203;DHT22;7702;51.046;5.184;2023-04-24T12:22:16;11.60;99.90
15203;DHT22;7702;51.046;5.184;2023-04-24T12:25:03;11.80;99.90
15203;DHT22;7702;51.046;5.184;2023-04-24T12:27:34;11.80;99.90
15203;DHT22;7702;51.046;5.184;2023-04-24T12:30:00;11.70;99.90
15203;DHT22;7702;51.046;5.184;2023-04-24T12:32:27;11.60;99.90
15203;DHT22;7702;51.046;5.184;2023-04-24T12:34:54;11.50;99.90
15203;DHT22;7702;51.046;5.184;2023-04-24T12:37:20;11.50;99.90
15203;DHT22;7702;51.046;5.184;2023-04-24T12:40:11;11.50;99.90
15203;DHT22;7702;51.046;5.184;2023-04-24T12:42:48;11.30;99.90
15203;DHT22;7702;51.046;5.184;2023-04-24T12:45:15;11.20;99.90
15203;DHT22;7702;51.046;5.184;2023-04-24T12:47:42;11.30;99.90
15203;DHT22;7702;51.046;5.184;2023-04-24T12:50:10;11.40;99.90
15203;DHT22;7702;51.046;5.184;2023-04-24T12:52:36;11.40;99.90
15203;DHT22;7702;51.046;5.184;2023-04-24T12:55:02;11.50;99.90
15203;DHT22;7702;51.046;5.184;2023-04-24T12:57:30;11.40;99.90
15203;DHT22;7702;51.046;5.184;2023-04-24T12:59:59;11.40;99.90
15203;DHT22;7702;51.046;5.184;2023-04-24T13:02:26;11.30;99.90
15203;DHT22;7702;51.046;5.184;2023-04-24T13:04:53;11.30;99.90
15203;DHT22;7702;51.046;5.184;2023-04-24T13:07:19;11.60;99.90
15203;DHT22;7702;51.046;5.184;2023-04-24T13:09:45;11.90;99.90
15203;DHT22;7702;51.046;5.184;2023-04-24T13:12:13;12.50;99.90
15203;DHT22;7702;51.046;5.184;2023-04-24T13:14:39;12.60;99.90
15203;DHT22;7702;51.046;5.184;2023-04-24T13:17:04;12.40;99.90
15203;DHT22;7702;51.046;5.184;2023-04-24T13:19:40;12.30;99.90
15203;DHT22;7702;51.046;5.184;2023-04-24T13:22:06;12.70;99.90
15203;DHT22;7702;51.046;5.184;2023-04-24T13:24:32;12.30;99.90
15203;DHT22;7702;51.046;5.184;2023-04-24T13:26:58;12.00;99.90
15203;DHT22;7702;51.046;5.184;2023-04-24T13:29:25;11.90;99.90
15203;DHT22;7702;51.046;5.184;2023-04-24T13:31:51;11.70;99.90
15203;DHT22;7702;51.046;5.184;2023-04-24T13:34:19;11.60;99.90
15203;DHT22;7702;51.046;5.184;2023-04-24T13:36:45;11.50;99.90
15203;DHT22;7702;51.046;5.184;2023-04-24T13:39:11;11.30;99.90
15203;DHT22;7702;51.046;5.184;2023-04-24T13:41:37;11.50;99.90
15203;DHT22;7702;51.046;5.184;2023-04-24T13:44:03;11.50;99.90
15203;DHT22;7702;51.046;5.184;2023-04-24T13:46:30;12.00;99.90
15203;DHT22;7702;51.046;5.184;2023-04-24T13:48:56;12.80;99.90
15203;DHT22;7702;51.046;5.184;2023-04-24T13:51:24;13.30;99.90
15203;DHT22;7702;51.046;5.184;2023-04-24T13:53:52;13.30;99.90
15203;DHT22;7702;51.046;5.184;2023-04-24T13:56:18;13.60;99.90
15203;DHT22;7702;51.046;5.184;2023-04-24T13:58:44;13.60;99.90
15203;DHT22;7702;51.046;5.184;2023-04-24T14:01:10;13.50;99.90
15203;DHT22;7702;51.046;5.184;2023-04-24T14:03:37;13.20;99.90
15203;DHT22;7702;51.046;5.184;2023-04-24T14:06:03;12.80;99.90
15203;DHT22;7702;51.046;5.184;2023-04-24T14:08:29;12.60;99.90
15203;DHT22;7702;51.046;5.184;2023-04-24T14:10:54;13.00;99.90
15203;DHT22;7702;51.046;5.184;2023-04-24T14:13:20;13.20;99.90
15203;DHT22;7702;51.046;5.184;2023-04-24T14:15:46;13.20;99.90
15203;DHT22;7702;51.046;5.184;2023-04-24T14:18:12;13.40;99.90
15203;DHT22;7702;51.046;5.184;2023-04-24T14:20:37;13.30;99.90
15203;DHT22;7702;51.046;5.184;2023-04-24T14:23:03;13.70;99.90
15203;DHT22;7702;51.046;5.184;2023-04-24T14:25:30;14.00;99.90
15203;DHT22;7702;51.046;5.184;2023-04-24T14:27:56;13.90;99.90
15203;DHT22;7702;51.046;5.184;2023-04-24T14:30:21;14.30;99.90
15203;DHT22;7702;51.046;5.184;2023-04-24T14:32:47;14.00;99.90
15203;DHT22;7702;51.046;5.184;2023-04-24T14:35:13;13.90;99.90
15203;DHT22;7702;51.046;5.184;2023-04-24T14:37:40;13.80;99.90
15203;DHT22;7702;51.046;5.184;2023-04-24T14:40:09;13.80;99.90
15203;DHT22;7702;51.046;5.184;2023-04-24T14:42:35;13.70;99.90
15203;DHT22;7702;51.046;5.184;2023-04-24T14:45:01;14.10;99.90
15203;DHT22;7702;51.046;5.184;2023-04-24T14:47:27;14.20;99.90
15203;DHT22;7702;51.046;5.184;2023-04-24T14:49:53;15.00;99.90
15203;DHT22;7702;51.046;5.184;2023-04-24T14:52:18;15.10;99.90
15203;DHT22;7702;51.046;5.184;2023-04-24T14:54:44;14.30;99.90
15203;DHT22;7702;51.046;5.184;2023-04-24T14:57:10;13.50;99.90
15203;DHT22;7702;51.046;5.184;2023-04-24T14:59:36;13.10;99.90
15203;DHT22;7702;51.046;5.184;2023-04-24T15:02:02;13.20;99.90
15203;DHT22;7702;51.046;5.184;2023-04-24T15:04:28;13.70;99.90
15203;DHT22;7702;51.046;5.184;2023-04-24T15:06:54;14.60;99.90
15203;DHT22;7702;51.046;5.184;2023-04-24T15:09:21;14.40;99.90
15203;DHT22;7702;51.046;5.184;2023-04-24T15:11:48;14.10;99.90
15203;DHT22;7702;51.046;5.184;2023-04-24T15:14:14;14.00;99.90
15203;DHT22;7702;51.046;5.184;2023-04-24T15:16:40;14.50;99.90
15203;DHT22;7702;51.046;5.184;2023-04-24T15:19:06;14.80;99.90
15203;DHT22;7702;51.046;5.184;2023-04-24T15:21:32;14.30;99.90
15203;DHT22;7702;51.046;5.184;2023-04-24T15:23:58;14.00;99.90
15203;DHT22;7702;51.046;5.184;2023-04-24T15:26:24;13.40;99.90
15203;DHT22;7702;51.046;5.184;2023-04-24T15:28:53;13.50;99.90
15203;DHT22;7702;51.046;5.184;2023-04-24T15:31:19;13.30;99.90
15203;DHT22;7702;51.046;5.184;2023-04-24T15:33:45;13.20;99.90
15203;DHT22;7702;51.046;5.184;2023-04-24T15:36:11;13.40;99.90
15203;DHT22;7702;51.046;5.184;2023-04-24T15:38:37;13.60;99.90
15203;DHT22;7702;51.046;5.184;2023-04-24T15:41:03;14.00;99.90
15203;DHT22;7702;51.046;5.184;2023-04-24T15:43:28;13.20;99.90
15203;DHT22;7702;51.046;5.184;2023-04-24T15:45:57;12.60;99.90
15203;DHT22;7702;51.046;5.184;2023-04-24T15:48:22;12.60;99.90
15203;DHT22;7702;51.046;5.184;2023-04-24T15:50:48;12.50;99.90
15203;DHT22;7702;51.046;5.184;2023-04-24T15:53:14;12.50;99.90
15203;DHT22;7702;51.046;5.184;2023-04-24T15:55:46;12.60;99.90
15203;DHT22;7702;51.046;5.184;2023-04-24T15:58:12;12.60;99.90
15203;DHT22;7702;51.046;5.184;2023-04-24T16:00:38;12.60;99.90
15203;DHT22;7702;51.046;5.184;2023-04-24T16:03:03;12.40;99.90
15203;DHT22;7702;51.046;5.184;2023-04-24T16:05:29;12.20;99.90
15203;DHT22;7702;51.046;5.184;2023-04-24T16:07:55;12.10;99.90
15203;DHT22;7702;51.046;5.184;2023-04-24T16:10:21;12.20;99.90